createdAt,value
2019-05-19T00:00:32.142Z,89.86
2019-05-19T00:05:55.743Z,91.05
2019-05-19T00:11:18.435Z,91.51
2019-05-19T00:16:41.863Z,92.31
2019-05-19T00:22:05.086Z,93.15
2019-05-19T00:27:27.663Z,92.71
2019-05-19T00:32:50.522Z,93.15
2019-05-19T00:38:14.082Z,93.97
2019-05-19T00:43:37.700Z,94.11
2019-05-19T00:49:00.588Z,94.09
2019-05-19T00:54:23.786Z,93.99
2019-05-19T00:59:47.811Z,94.61
2019-05-19T01:05:11.034Z,94.15
2019-05-19T01:10:33.576Z,94.46
2019-05-19T01:15:56.760Z,94.87
2019-05-19T01:21:20.217Z,95.26
2019-05-19T01:26:43.718Z,95.02
2019-05-19T01:32:07.267Z,94.76
2019-05-19T01:37:30.832Z,94.73
2019-05-19T01:42:53.870Z,94.56
2019-05-19T01:48:17.079Z,94.48
2019-05-19T01:53:40.293Z,95.37
2019-05-19T01:59:03.973Z,95.49
2019-05-19T02:04:27.054Z,94.62
2019-05-19T02:09:50.642Z,95.00
2019-05-19T02:15:13.954Z,95.00
2019-05-19T02:20:37.061Z,95.17
2019-05-19T02:25:59.630Z,94.62
2019-05-19T02:31:22.246Z,93.70
2019-05-19T02:36:44.908Z,93.73
2019-05-19T02:42:08.011Z,94.69
2019-05-19T02:47:32.836Z,94.53
2019-05-19T02:52:56.015Z,93.75
2019-05-19T02:58:20.218Z,93.43
2019-05-19T03:03:43.508Z,93.64
2019-05-19T03:09:06.139Z,93.83
2019-05-19T03:14:29.176Z,93.61
2019-05-19T03:19:51.800Z,93.70
2019-05-19T03:25:14.441Z,93.82
2019-05-19T03:30:49.821Z,93.74
2019-05-19T03:36:12.926Z,93.71
2019-05-19T03:41:35.628Z,93.78
2019-05-19T03:46:58.721Z,93.54
2019-05-19T03:52:21.749Z,92.97
2019-05-19T03:57:44.829Z,91.55
2019-05-19T04:03:08.351Z,89.83
2019-05-19T04:08:30.941Z,88.56
2019-05-19T04:13:53.698Z,86.72
2019-05-19T04:19:16.330Z,83.25
2019-05-19T04:24:41.039Z,77.57
2019-05-19T04:30:04.605Z,72.50
2019-05-19T04:35:27.995Z,68.78
2019-05-19T04:40:51.315Z,67.41
2019-05-19T04:46:14.881Z,66.55
2019-05-19T04:51:37.543Z,65.18
2019-05-19T04:57:00.508Z,65.79
2019-05-19T05:02:24.989Z,65.61
2019-05-19T05:07:48.713Z,63.13
2019-05-19T05:13:11.990Z,62.49
2019-05-19T05:18:35.286Z,63.09
2019-05-19T05:23:58.481Z,63.17
2019-05-19T05:29:21.132Z,62.28
2019-05-19T05:34:43.972Z,62.38
2019-05-19T05:40:07.010Z,60.58
2019-05-19T05:45:29.918Z,56.89
2019-05-19T05:50:52.892Z,56.83
2019-05-19T05:56:15.477Z,55.17
2019-05-19T06:01:38.905Z,54.83
2019-05-19T06:07:01.571Z,51.23
2019-05-19T06:12:25.113Z,51.35
2019-05-19T06:17:48.390Z,49.89
2019-05-19T06:23:11.362Z,48.92
2019-05-19T06:28:35.037Z,46.85
2019-05-19T06:33:58.315Z,43.75
2019-05-19T06:39:21.252Z,42.08
2019-05-19T06:47:06.472Z,45.29
2019-05-19T06:52:31.622Z,39.61
2019-05-19T06:57:56.114Z,41.57
2019-05-19T07:03:20.977Z,40.27
2019-05-19T07:08:45.985Z,40.36
2019-05-19T07:14:09.703Z,41.52
2019-05-19T07:19:34.171Z,40.84
2019-05-19T07:24:58.626Z,39.55
2019-05-19T07:30:22.549Z,40.42
2019-05-19T07:35:47.278Z,40.38
2019-05-19T07:41:11.884Z,38.70
2019-05-19T07:46:36.495Z,37.83
2019-05-19T07:52:01.011Z,38.33
2019-05-19T07:57:24.667Z,38.57
2019-05-19T08:02:48.623Z,38.88
2019-05-19T08:08:13.130Z,38.56
2019-05-19T08:13:37.915Z,39.55
2019-05-19T08:19:02.978Z,37.99
2019-05-19T08:24:27.794Z,38.23
2019-05-19T08:29:51.734Z,38.64
2019-05-19T08:35:15.515Z,38.22
2019-05-19T08:40:40.456Z,37.45
2019-05-19T08:46:04.957Z,37.42
2019-05-19T08:51:29.431Z,37.00
2019-05-19T08:56:53.408Z,37.73
2019-05-19T09:02:17.828Z,38.03
2019-05-19T09:07:42.559Z,39.16
2019-05-19T09:13:07.731Z,36.82
2019-05-19T09:18:32.314Z,37.33
2019-05-19T09:23:56.854Z,38.48
2019-05-19T09:29:21.967Z,36.38
2019-05-19T09:34:45.725Z,35.75
2019-05-19T09:40:10.786Z,35.38
2019-05-19T09:45:35.451Z,35.01
2019-05-19T09:50:59.661Z,35.58
2019-05-19T09:56:24.320Z,35.33
2019-05-19T10:01:49.031Z,34.51
2019-05-19T10:07:13.638Z,32.53
2019-05-19T10:12:37.742Z,32.96
2019-05-19T10:18:02.290Z,33.12
2019-05-19T10:23:26.670Z,32.09
2019-05-19T10:28:51.194Z,32.26
2019-05-19T10:34:15.684Z,33.19
2019-05-19T10:39:39.643Z,31.72
2019-05-19T10:45:04.592Z,31.07
2019-05-19T10:50:28.241Z,30.84
2019-05-19T10:55:52.511Z,31.43
2019-05-19T11:01:17.237Z,30.74
2019-05-19T11:06:40.936Z,29.50
2019-05-19T11:12:05.611Z,31.53
2019-05-19T11:17:29.537Z,29.83
2019-05-19T11:22:53.518Z,28.50
2019-05-19T11:28:17.268Z,31.45
2019-05-19T11:33:41.874Z,31.59
2019-05-19T11:39:07.719Z,32.71
2019-05-19T11:44:31.937Z,29.49
2019-05-19T11:49:56.684Z,28.64
2019-05-19T11:55:21.032Z,32.04
2019-05-19T12:00:45.135Z,32.44
2019-05-19T12:06:09.902Z,30.60
2019-05-19T12:11:34.208Z,28.45
2019-05-19T12:16:58.569Z,27.72
2019-05-19T12:22:23.448Z,32.13
2019-05-19T12:27:48.357Z,30.39
2019-05-19T12:33:13.042Z,30.24
2019-05-19T12:38:37.757Z,30.34
2019-05-19T12:44:02.574Z,31.53
2019-05-19T12:49:27.235Z,32.64
2019-05-19T12:54:51.088Z,30.47
2019-05-19T13:00:15.187Z,29.10
2019-05-19T13:05:39.886Z,28.05
2019-05-19T13:11:03.800Z,29.52
2019-05-19T13:16:28.671Z,28.73
2019-05-19T13:21:53.549Z,27.78
2019-05-19T13:27:17.852Z,26.12
2019-05-19T13:32:42.569Z,28.15
2019-05-19T13:38:07.022Z,27.27
2019-05-19T13:43:31.897Z,29.80
2019-05-19T13:48:56.376Z,31.98
2019-05-19T13:54:20.805Z,33.11
2019-05-19T13:59:45.377Z,30.65
2019-05-19T14:05:10.415Z,27.47
2019-05-19T14:10:34.987Z,25.50
2019-05-19T14:15:59.486Z,24.60
2019-05-19T14:21:24.063Z,30.12
2019-05-19T14:26:47.823Z,39.37
2019-05-19T14:32:11.823Z,38.87
2019-05-19T14:37:36.519Z,37.04
2019-05-19T14:43:02.223Z,42.94
2019-05-19T14:48:26.940Z,64.80
2019-05-19T14:53:50.958Z,82.71
2019-05-19T14:59:14.852Z,90.22
2019-05-19T15:04:38.695Z,88.92
2019-05-19T15:10:03.301Z,86.70
2019-05-19T15:15:27.374Z,81.96
2019-05-19T15:20:51.139Z,78.57
2019-05-19T15:26:14.851Z,76.42
2019-05-19T15:31:38.804Z,76.42
2019-05-19T15:37:03.620Z,77.65
2019-05-19T15:42:28.013Z,77.25
2019-05-19T15:47:52.726Z,74.02
2019-05-19T15:53:17.462Z,69.61
2019-05-19T15:58:42.356Z,69.66
2019-05-19T16:04:06.866Z,63.38
2019-05-19T16:09:31.484Z,65.93
2019-05-19T16:14:56.449Z,67.35
2019-05-19T16:20:20.824Z,65.89
2019-05-19T16:25:44.799Z,68.20
2019-05-19T16:31:08.726Z,69.61
2019-05-19T16:36:32.487Z,70.59
2019-05-19T16:41:56.913Z,70.15
2019-05-19T16:47:22.003Z,70.54
2019-05-19T16:52:47.581Z,68.71
2019-05-19T16:58:20.553Z,69.44
2019-05-19T17:03:37.554Z,68.27
2019-05-19T17:09:02.121Z,70.85
2019-05-19T17:14:28.243Z,69.10
2019-05-19T17:19:52.745Z,65.62
2019-05-19T17:25:18.341Z,63.00
2019-05-19T17:30:42.869Z,63.00
2019-05-19T17:36:07.370Z,64.01
2019-05-19T17:41:32.953Z,62.31
2019-05-19T17:46:57.606Z,61.27
2019-05-19T17:52:22.137Z,62.03
2019-05-19T17:57:47.833Z,64.86
2019-05-19T18:03:12.679Z,65.17
2019-05-19T18:08:36.620Z,67.38
2019-05-19T18:14:01.281Z,67.40
2019-05-19T18:19:25.326Z,68.69
2019-05-19T18:24:49.192Z,69.30
2019-05-19T18:30:15.615Z,68.89
2019-05-19T18:35:39.483Z,68.21
2019-05-19T18:41:03.926Z,68.21
2019-05-19T18:46:28.689Z,67.71
2019-05-19T18:51:53.252Z,67.31
2019-05-19T18:57:18.028Z,67.06
2019-05-19T19:02:42.031Z,67.37
2019-05-19T19:08:05.918Z,68.32
2019-05-19T19:13:30.858Z,71.21
2019-05-19T19:18:55.500Z,75.40
2019-05-19T19:24:20.329Z,75.95
2019-05-19T19:29:44.990Z,77.20
2019-05-19T19:35:10.129Z,74.24
2019-05-19T19:40:34.742Z,74.17
2019-05-19T19:45:58.890Z,74.26
2019-05-19T19:51:23.609Z,72.00
2019-05-19T19:56:48.256Z,71.45
2019-05-19T20:02:12.166Z,69.18
2019-05-19T20:07:36.738Z,68.26
2019-05-19T20:13:01.101Z,68.50
2019-05-19T20:18:24.916Z,72.39
2019-05-19T20:23:48.544Z,79.59
2019-05-19T20:29:13.482Z,81.45
2019-05-19T20:34:38.183Z,81.18
2019-05-19T20:40:03.988Z,81.09
2019-05-19T20:45:28.564Z,81.17
2019-05-19T20:50:53.174Z,80.38
2019-05-19T20:56:17.057Z,80.68
2019-05-19T21:01:44.918Z,80.41
2019-05-19T21:07:07.872Z,79.87
2019-05-19T21:12:32.933Z,80.03
2019-05-19T21:17:56.624Z,79.88
2019-05-19T21:23:20.260Z,80.23
2019-05-19T21:28:44.698Z,80.87
2019-05-19T21:34:09.297Z,81.38
2019-05-19T21:39:33.902Z,81.43
2019-05-19T21:44:58.607Z,82.35
2019-05-19T21:50:23.355Z,82.92
2019-05-19T21:55:48.067Z,83.54
2019-05-19T22:01:22.935Z,85.62
2019-05-19T22:06:40.218Z,87.22
2019-05-19T22:12:04.302Z,86.56
2019-05-19T22:17:27.897Z,86.45
2019-05-19T22:22:52.859Z,86.58
2019-05-19T22:28:17.374Z,87.65
2019-05-19T22:33:41.167Z,88.61
2019-05-19T22:39:07.948Z,89.32
2019-05-19T22:44:32.389Z,90.27
2019-05-19T22:49:57.087Z,90.67
2019-05-19T22:55:21.871Z,90.87
2019-05-19T23:00:45.814Z,92.32
2019-05-19T23:06:09.977Z,92.62
2019-05-19T23:11:34.101Z,93.12
2019-05-19T23:16:57.815Z,94.40
2019-05-19T23:22:21.824Z,95.01
2019-05-19T23:27:46.575Z,95.78
2019-05-19T23:33:11.095Z,96.17
2019-05-19T23:38:35.621Z,96.18
2019-05-19T23:44:00.053Z,96.76
2019-05-19T23:49:24.427Z,97.33
2019-05-19T23:54:48.593Z,97.79
